PWSweather.com
Personal Weather Stations
Station Observations
DELHOVEN
DormagenDE 41540

DormagenDE 41540

Lat: 51.083, Lon: 6.775

Elevation: 120

Station Type: WH1080

Latest ConditionsUpdated 9:12:41 PM GMT+01:01 Thursday, Jan 29, 2015
Currently Today's Max Today's Min Today's Average
Temperature 37.9°F3.3°C 45.1°F7.3°C 34.7°F1.5°C 38.1°F3.4°C
Dew Point 32.6°F0.3°C 34.8°F1.6°C 26.9°F-2.8°C 30.7°F-0.7°C
Winds 2.2 mph NE3.5 kmh NE 16.8 mph S27.0 kmh S - 7.6 mph 12.2 kmh
Wind Gusts 3.1 mph5.0 kmh 23.5 mph37.8 kmh - -
Humidity 81% 82% 63% 75%
Pressure 28.80 in975.3 mb 29.52 in999.7 mb 28.80 in975.3 mb -
Precipitation - 0.01 in0.3 mm - -
Hour Temp Dew Point Humidity Winds Wind Gusts Pressure Precip Precip Rate Daily Precip Total
09:12 PM 37.9°F3.3°C 32.6°F0.3°C 81% 2.2 mph NE3.5 kmh NE 3.1 mph5.0 kmh 28.80 in975.3 mb 0.00 in0.0 mm 0.00 in/hr0.0 mm/hr 0.01 in0.3 mm
09:07 PM 38.1°F3.4°C 32.8°F0.4°C 81% 3.8 mph SE6.1 kmh SE 5.4 mph8.7 kmh 28.80 in975.3 mb 0.00 in0.0 mm 0.00 in/hr0.0 mm/hr 0.01 in0.3 mm
09:02 PM 38.1°F3.4°C 32.8°F0.4°C 81% 2.2 mph S3.5 kmh S 3.8 mph6.1 kmh 28.80 in975.3 mb 0.00 in0.0 mm 0.00 in/hr0.0 mm/hr 0.01 in0.3 mm
08:57 PM 38.3°F3.5°C 33.0°F0.6°C 81% 5.4 mph SE8.7 kmh SE 6.9 mph11.1 kmh 28.81 in975.6 mb 0.00 in0.0 mm 0.00 in/hr0.0 mm/hr 0.01 in0.3 mm
08:52 PM 38.3°F3.5°C 33.0°F0.6°C 81% 3.8 mph E6.1 kmh E 6.0 mph9.7 kmh 28.81 in975.6 mb 0.00 in0.0 mm 0.00 in/hr0.0 mm/hr 0.01 in0.3 mm
08:47 PM 38.3°F3.5°C 33.0°F0.6°C 81% 4.5 mph E7.2 kmh E 6.9 mph11.1 kmh 28.81 in975.6 mb 0.00 in0.0 mm 0.00 in/hr0.0 mm/hr 0.01 in0.3 mm
08:39 PM 38.5°F3.6°C 33.2°F0.7°C 81% 3.1 mph ENE5.0 kmh ENE 5.4 mph8.7 kmh 28.82 in976.0 mb 0.00 in0.0 mm 0.00 in/hr0.0 mm/hr 0.01 in0.3 mm
08:34 PM 38.5°F3.6°C 33.2°F0.7°C 81% 2.2 mph S3.5 kmh S 5.4 mph8.7 kmh 28.82 in976.0 mb 0.00 in0.0 mm 0.00 in/hr0.0 mm/hr 0.01 in0.3 mm
08:29 PM 38.5°F3.6°C 33.2°F0.7°C 81% 2.2 mph SW3.5 kmh SW 3.8 mph6.1 kmh 28.82 in976.0 mb 0.00 in0.0 mm 0.00 in/hr0.0 mm/hr 0.01 in0.3 mm
08:23 PM 38.5°F3.6°C 33.2°F0.7°C 81% 3.1 mph ENE5.0 kmh ENE 5.4 mph8.7 kmh 28.82 in976.0 mb 0.00 in0.0 mm 0.00 in/hr0.0 mm/hr 0.01 in0.3 mm
08:11 PM 38.7°F3.7°C 33.3°F0.7°C 81% 2.2 mph S3.5 kmh S 3.8 mph6.1 kmh 28.83 in976.3 mb 0.00 in0.0 mm 0.00 in/hr0.0 mm/hr 0.01 in0.3 mm
08:06 PM 38.7°F3.7°C 33.0°F0.6°C 80% 1.6 mph SW2.6 kmh SW 3.8 mph6.1 kmh 28.84 in976.6 mb 0.00 in0.0 mm 0.00 in/hr0.0 mm/hr 0.01 in0.3 mm
08:01 PM 38.7°F3.7°C 33.0°F0.6°C 80% 1.6 mph SW2.6 kmh SW 3.8 mph6.1 kmh 28.84 in976.6 mb 0.00 in0.0 mm 0.00 in/hr0.0 mm/hr 0.01 in0.3 mm
07:56 PM 38.7°F3.7°C 33.0°F0.6°C 80% 3.8 mph S6.1 kmh S 5.4 mph8.7 kmh 28.84 in976.6 mb 0.00 in0.0 mm 0.00 in/hr0.0 mm/hr 0.01 in0.3 mm
07:51 PM 38.7°F3.7°C 33.0°F0.6°C 80% 3.8 mph SE6.1 kmh SE 6.0 mph9.7 kmh 28.85 in977.0 mb 0.00 in0.0 mm 0.00 in/hr0.0 mm/hr 0.01 in0.3 mm
07:45 PM 38.7°F3.7°C 33.0°F0.6°C 80% 3.1 mph SE5.0 kmh SE 3.8 mph6.1 kmh 28.85 in977.0 mb 0.00 in0.0 mm 0.00 in/hr0.0 mm/hr 0.01 in0.3 mm
07:40 PM 38.7°F3.7°C 33.0°F0.6°C 80% 3.8 mph E6.1 kmh E 5.4 mph8.7 kmh 28.85 in977.0 mb 0.00 in0.0 mm 0.00 in/hr0.0 mm/hr 0.01 in0.3 mm
07:35 PM 38.7°F3.7°C 33.0°F0.6°C 80% 2.2 mph E3.5 kmh E 3.1 mph5.0 kmh 28.86 in977.3 mb 0.00 in0.0 mm 0.00 in/hr0.0 mm/hr 0.01 in0.3 mm
07:30 PM 38.7°F3.7°C 33.0°F0.6°C 80% 2.2 mph SE3.5 kmh SE 4.5 mph7.2 kmh 28.86 in977.3 mb 0.00 in0.0 mm 0.00 in/hr0.0 mm/hr 0.01 in0.3 mm
07:25 PM 38.8°F3.8°C 33.2°F0.7°C 80% 3.1 mph SE5.0 kmh SE 5.4 mph8.7 kmh 28.87 in977.7 mb 0.00 in0.0 mm 0.00 in/hr0.0 mm/hr 0.01 in0.3 mm
07:20 PM 38.8°F3.8°C 33.2°F0.7°C 80% 3.1 mph SW5.0 kmh SW 5.4 mph8.7 kmh 28.88 in978.0 mb 0.00 in0.0 mm 0.00 in/hr0.0 mm/hr 0.01 in0.3 mm
07:14 PM 38.8°F3.8°C 33.2°F0.7°C 80% 2.2 mph SW3.5 kmh SW 3.1 mph5.0 kmh 28.88 in978.0 mb 0.00 in0.0 mm 0.00 in/hr0.0 mm/hr 0.01 in0.3 mm
07:09 PM 38.8°F3.8°C 32.9°F0.5°C 79% 3.1 mph E5.0 kmh E 5.4 mph8.7 kmh 28.88 in978.0 mb 0.00 in0.0 mm 0.00 in/hr0.0 mm/hr 0.01 in0.3 mm
07:01 PM 38.8°F3.8°C 32.9°F0.5°C 79% 1.6 mph S2.6 kmh S 3.8 mph6.1 kmh 28.89 in978.3 mb 0.00 in0.0 mm 0.00 in/hr0.0 mm/hr 0.01 in0.3 mm
06:53 PM 38.8°F3.8°C 32.9°F0.5°C 79% 4.5 mph WSW7.2 kmh WSW 6.9 mph11.1 kmh 28.88 in978.0 mb 0.00 in0.0 mm 0.00 in/hr0.0 mm/hr 0.01 in0.3 mm
06:48 PM 39.0°F3.9°C 33.1°F0.6°C 79% 3.1 mph SW5.0 kmh SW 5.4 mph8.7 kmh 28.89 in978.3 mb 0.00 in0.0 mm 0.00 in/hr0.0 mm/hr 0.01 in0.3 mm
06:41 PM 39.0°F3.9°C 33.1°F0.6°C 79% 5.4 mph S8.7 kmh S 8.3 mph13.4 kmh 28.89 in978.3 mb 0.00 in0.0 mm 0.00 in/hr0.0 mm/hr 0.01 in0.3 mm
06:34 PM 38.8°F3.8°C 32.9°F0.5°C 79% 3.8 mph S6.1 kmh S 7.6 mph12.2 kmh 28.89 in978.3 mb 0.00 in0.0 mm 0.00 in/hr0.0 mm/hr 0.01 in0.3 mm
06:29 PM 38.8°F3.8°C 32.9°F0.5°C 79% 2.2 mph E3.5 kmh E 4.5 mph7.2 kmh 28.90 in978.7 mb 0.00 in0.0 mm 0.00 in/hr0.0 mm/hr 0.01 in0.3 mm
06:24 PM 38.8°F3.8°C 32.9°F0.5°C 79% 3.8 mph W6.1 kmh W 6.0 mph9.7 kmh 28.90 in978.7 mb 0.00 in0.0 mm 0.00 in/hr0.0 mm/hr 0.01 in0.3 mm
06:19 PM 38.8°F3.8°C 32.9°F0.5°C 79% 4.5 mph S7.2 kmh S 6.9 mph11.1 kmh 28.91 in979.0 mb 0.00 in0.0 mm 0.00 in/hr0.0 mm/hr 0.01 in0.3 mm
06:14 PM 38.8°F3.8°C 32.9°F0.5°C 79% 3.8 mph S6.1 kmh S 5.4 mph8.7 kmh 28.91 in979.0 mb 0.00 in0.0 mm 0.00 in/hr0.0 mm/hr 0.01 in0.3 mm
06:09 PM 38.8°F3.8°C 32.6°F0.3°C 78% 6.0 mph S9.7 kmh S 7.6 mph12.2 kmh 28.92 in979.3 mb 0.00 in0.0 mm 0.00 in/hr0.0 mm/hr 0.01 in0.3 mm
06:04 PM 38.8°F3.8°C 32.6°F0.3°C 78% 4.5 mph SW7.2 kmh SW 6.9 mph11.1 kmh 28.92 in979.3 mb 0.00 in0.0 mm 0.00 in/hr0.0 mm/hr 0.01 in0.3 mm
05:59 PM 38.8°F3.8°C 32.6°F0.3°C 78% 4.5 mph SW7.2 kmh SW 6.9 mph11.1 kmh 28.92 in979.3 mb 0.00 in0.0 mm 0.00 in/hr0.0 mm/hr 0.01 in0.3 mm
05:54 PM 38.8°F3.8°C 32.6°F0.3°C 78% 6.9 mph SW11.1 kmh SW 9.8 mph15.8 kmh 28.93 in979.7 mb 0.00 in0.0 mm 0.00 in/hr0.0 mm/hr 0.01 in0.3 mm
05:49 PM 38.8°F3.8°C 32.6°F0.3°C 78% 3.1 mph S5.0 kmh S 4.5 mph7.2 kmh 28.93 in979.7 mb 0.00 in0.0 mm 0.00 in/hr0.0 mm/hr 0.01 in0.3 mm
05:44 PM 38.7°F3.7°C 32.1°F0.1°C 77% 4.5 mph S7.2 kmh S 6.9 mph11.1 kmh 28.93 in979.7 mb 0.00 in0.0 mm 0.00 in/hr0.0 mm/hr 0.01 in0.3 mm
05:39 PM 38.7°F3.7°C 32.1°F0.1°C 77% 3.8 mph S6.1 kmh S 5.4 mph8.7 kmh 28.93 in979.7 mb 0.00 in0.0 mm 0.00 in/hr0.0 mm/hr 0.01 in0.3 mm
05:33 PM 38.7°F3.7°C 32.1°F0.1°C 77% 6.0 mph S9.7 kmh S 9.2 mph14.8 kmh 28.93 in979.7 mb 0.00 in0.0 mm 0.00 in/hr0.0 mm/hr 0.01 in0.3 mm
05:28 PM 38.8°F3.8°C 31.9°F-0.1°C 76% 3.8 mph S6.1 kmh S 6.0 mph9.7 kmh 28.94 in980.0 mb 0.00 in0.0 mm 0.00 in/hr0.0 mm/hr 0.01 in0.3 mm
05:20 PM 39.0°F3.9°C 32.1°F0.1°C 76% 1.6 mph S2.6 kmh S 2.2 mph3.5 kmh 28.94 in980.0 mb 0.00 in0.0 mm 0.00 in/hr0.0 mm/hr 0.01 in0.3 mm
05:15 PM 39.2°F4.0°C 32.0°F0.0°C 75% 4.5 mph W7.2 kmh W 8.3 mph13.4 kmh 28.95 in980.4 mb 0.00 in0.0 mm 0.00 in/hr0.0 mm/hr 0.01 in0.3 mm
05:09 PM 39.4°F4.1°C 32.1°F0.1°C 75% 3.1 mph W5.0 kmh W 4.5 mph7.2 kmh 28.95 in980.4 mb 0.00 in0.0 mm 0.00 in/hr0.0 mm/hr 0.01 in0.3 mm
05:04 PM 39.7°F4.3°C 32.1°F0.1°C 74% 3.1 mph NW5.0 kmh NW 5.4 mph8.7 kmh 28.96 in980.7 mb 0.00 in0.0 mm 0.00 in/hr0.0 mm/hr 0.01 in0.3 mm
04:59 PM 40.1°F4.5°C 32.5°F0.3°C 74% 5.4 mph S8.7 kmh S 7.6 mph12.2 kmh 28.96 in980.7 mb 0.00 in0.0 mm 0.00 in/hr0.0 mm/hr 0.01 in0.3 mm
04:54 PM 40.5°F4.7°C 32.8°F0.4°C 74% 7.6 mph S12.2 kmh S 9.8 mph15.8 kmh 28.97 in981.0 mb 0.00 in0.0 mm 0.00 in/hr0.0 mm/hr 0.01 in0.3 mm
04:49 PM 40.8°F4.9°C 33.2°F0.7°C 74% 4.5 mph SW7.2 kmh SW 6.0 mph9.7 kmh 28.97 in981.0 mb 0.00 in0.0 mm 0.00 in/hr0.0 mm/hr 0.01 in0.3 mm
04:44 PM 41.0°F5.0°C 32.7°F0.4°C 72% 8.3 mph W13.4 kmh W 11.4 mph18.3 kmh 28.97 in981.0 mb 0.00 in0.0 mm 0.00 in/hr0.0 mm/hr 0.01 in0.3 mm
04:39 PM 41.2°F5.1°C 32.9°F0.5°C 72% 5.4 mph W8.7 kmh W 7.6 mph12.2 kmh 28.98 in981.4 mb 0.00 in0.0 mm 0.00 in/hr0.0 mm/hr 0.01 in0.3 mm
04:34 PM 41.2°F5.1°C 32.5°F0.3°C 71% 7.6 mph SW12.2 kmh SW 13.6 mph21.9 kmh 28.98 in981.4 mb 0.00 in0.0 mm 0.00 in/hr0.0 mm/hr 0.01 in0.3 mm
04:29 PM 41.4°F5.2°C 32.3°F0.2°C 70% 8.3 mph NW13.4 kmh NW 11.4 mph18.3 kmh 28.98 in981.4 mb 0.00 in0.0 mm 0.00 in/hr0.0 mm/hr 0.01 in0.3 mm
04:24 PM 41.7°F5.4°C 32.3°F0.2°C 69% 7.6 mph S12.2 kmh S 11.4 mph18.3 kmh 28.99 in981.7 mb 0.00 in0.0 mm 0.00 in/hr0.0 mm/hr 0.01 in0.3 mm
04:16 PM 42.1°F5.6°C 32.3°F0.2°C 68% 6.9 mph ESE11.1 kmh ESE 9.2 mph14.8 kmh 29.00 in982.1 mb 0.00 in0.0 mm 0.00 in/hr0.0 mm/hr 0.01 in0.3 mm
04:08 PM 42.3°F5.7°C 32.5°F0.3°C 68% 13.0 mph SW20.9 kmh SW 17.4 mph28.0 kmh 29.00 in982.1 mb 0.00 in0.0 mm 0.00 in/hr0.0 mm/hr 0.01 in0.3 mm
04:03 PM 43.0°F6.1°C 32.4°F0.2°C 66% 7.6 mph NW12.2 kmh NW 13.0 mph20.9 kmh 29.01 in982.4 mb 0.00 in0.0 mm 0.00 in/hr0.0 mm/hr 0.01 in0.3 mm
03:58 PM 43.0°F6.1°C 32.4°F0.2°C 66% 7.6 mph NW12.2 kmh NW 13.0 mph20.9 kmh 29.00 in982.1 mb 0.00 in0.0 mm 0.00 in/hr0.0 mm/hr 0.01 in0.3 mm
03:47 PM 43.0°F6.1°C 32.4°F0.2°C 66% 6.0 mph SE9.7 kmh SE 9.2 mph14.8 kmh 29.02 in982.7 mb 0.00 in0.0 mm 0.00 in/hr0.0 mm/hr 0.01 in0.3 mm
03:42 PM 43.2°F6.2°C 32.2°F0.1°C 65% 6.9 mph S11.1 kmh S 13.0 mph20.9 kmh 29.02 in982.7 mb 0.00 in0.0 mm 0.00 in/hr0.0 mm/hr 0.01 in0.3 mm
03:37 PM 43.7°F6.5°C 32.7°F0.4°C 65% 10.7 mph NW17.2 kmh NW 14.5 mph23.3 kmh 29.03 in983.1 mb 0.00 in0.0 mm 0.00 in/hr0.0 mm/hr 0.01 in0.3 mm
03:28 PM 43.7°F6.5°C 33.1°F0.6°C 66% 9.2 mph SW14.8 kmh SW 14.5 mph23.3 kmh 29.03 in983.1 mb 0.00 in0.0 mm 0.00 in/hr0.0 mm/hr 0.01 in0.3 mm
03:18 PM 43.0°F6.1°C 32.4°F0.2°C 66% 6.0 mph WSW9.7 kmh WSW 8.3 mph13.4 kmh 29.04 in983.4 mb 0.00 in0.0 mm 0.00 in/hr0.0 mm/hr 0.01 in0.3 mm
03:11 PM 43.5°F6.4°C 32.5°F0.3°C 65% 13.0 mph WNW20.9 kmh WNW 17.4 mph28.0 kmh 29.05 in983.7 mb 0.00 in0.0 mm 0.00 in/hr0.0 mm/hr 0.01 in0.3 mm
03:04 PM 43.9°F6.6°C 32.5°F0.3°C 64% 10.7 mph NW17.2 kmh NW 17.4 mph28.0 kmh 29.05 in983.7 mb 0.00 in0.0 mm 0.00 in/hr0.0 mm/hr 0.01 in0.3 mm
02:57 PM 44.4°F6.9°C 33.0°F0.6°C 64% 7.6 mph SSW12.2 kmh SSW 14.5 mph23.3 kmh 29.06 in984.1 mb 0.00 in0.0 mm 0.00 in/hr0.0 mm/hr 0.01 in0.3 mm
02:52 PM 44.8°F7.1°C 33.0°F0.6°C 63% 9.2 mph WSW14.8 kmh WSW 13.6 mph21.9 kmh 29.06 in984.1 mb 0.00 in0.0 mm 0.00 in/hr0.0 mm/hr 0.01 in0.3 mm
02:46 PM 45.1°F7.3°C 33.7°F0.9°C 64% 10.7 mph S17.2 kmh S 16.8 mph27.0 kmh 29.06 in984.1 mb 0.00 in0.0 mm 0.00 in/hr0.0 mm/hr 0.01 in0.3 mm
02:41 PM 44.1°F6.7°C 33.4°F0.8°C 66% 9.2 mph W14.8 kmh W 15.2 mph24.5 kmh 29.07 in984.4 mb 0.00 in0.0 mm 0.00 in/hr0.0 mm/hr 0.01 in0.3 mm
02:36 PM 43.7°F6.5°C 33.1°F0.6°C 66% 15.2 mph NW24.5 kmh NW 23.5 mph37.8 kmh 29.07 in984.4 mb 0.00 in0.0 mm 0.00 in/hr0.0 mm/hr 0.01 in0.3 mm
02:28 PM 43.7°F6.5°C 33.1°F0.6°C 66% 11.4 mph WSW18.3 kmh WSW 17.4 mph28.0 kmh 29.08 in984.8 mb 0.00 in0.0 mm 0.00 in/hr0.0 mm/hr 0.01 in0.3 mm
02:23 PM 43.5°F6.4°C 33.7°F0.9°C 68% 9.8 mph S15.8 kmh S 13.0 mph20.9 kmh 29.08 in984.8 mb 0.00 in0.0 mm 0.00 in/hr0.0 mm/hr 0.01 in0.3 mm
02:18 PM 43.3°F6.3°C 33.5°F0.8°C 68% 8.3 mph SW13.4 kmh SW 13.6 mph21.9 kmh 29.09 in985.1 mb 0.00 in0.0 mm 0.00 in/hr0.0 mm/hr 0.01 in0.3 mm
02:13 PM 43.3°F6.3°C 33.9°F1.1°C 69% 10.7 mph SE17.2 kmh SE 17.4 mph28.0 kmh 29.09 in985.1 mb 0.00 in0.0 mm 0.00 in/hr0.0 mm/hr 0.01 in0.3 mm
02:08 PM 43.2°F6.2°C 34.8°F1.6°C 72% 13.0 mph NW20.9 kmh NW 19.0 mph30.6 kmh 29.10 in985.4 mb 0.00 in0.0 mm 0.00 in/hr0.0 mm/hr 0.01 in0.3 mm
02:01 PM 42.1°F5.6°C 34.4°F1.3°C 74% 11.4 mph NW18.3 kmh NW 17.4 mph28.0 kmh 29.11 in985.8 mb 0.00 in0.0 mm 0.00 in/hr0.0 mm/hr 0.01 in0.3 mm
01:56 PM 41.7°F5.4°C 34.1°F1.2°C 74% 14.5 mph 23.3 kmh 21.3 mph34.3 kmh 29.11 in985.8 mb 0.00 in0.0 mm 0.00 in/hr0.0 mm/hr 0.01 in0.3 mm
01:49 PM 41.4°F5.2°C 33.7°F0.9°C 74% 7.6 mph SW12.2 kmh SW 12.1 mph19.5 kmh 29.12 in986.1 mb 0.00 in0.0 mm 0.00 in/hr0.0 mm/hr 0.01 in0.3 mm
01:37 PM 41.4°F5.2°C 33.4°F0.8°C 73% 11.4 mph NW18.3 kmh NW 16.8 mph27.0 kmh 29.12 in986.1 mb 0.00 in0.0 mm 0.00 in/hr0.0 mm/hr 0.00 in0.0 mm
01:29 PM 42.1°F5.6°C 33.7°F0.9°C 72% 7.6 mph W12.2 kmh W 11.4 mph18.3 kmh 29.13 in986.5 mb 0.00 in0.0 mm 0.00 in/hr0.0 mm/hr 0.00 in0.0 mm
01:20 PM 42.1°F5.6°C 34.1°F1.2°C 73% 10.7 mph NW17.2 kmh NW 19.0 mph30.6 kmh 29.14 in986.8 mb 0.00 in0.0 mm 0.00 in/hr0.0 mm/hr 0.00 in0.0 mm
01:15 PM 42.1°F5.6°C 33.4°F0.8°C 71% 7.6 mph NW12.2 kmh NW 13.0 mph20.9 kmh 29.15 in987.1 mb 0.00 in0.0 mm 0.00 in/hr0.0 mm/hr 0.00 in0.0 mm
01:06 PM 42.8°F6.0°C 32.6°F0.3°C 67% 9.2 mph NW14.8 kmh NW 11.4 mph18.3 kmh 29.16 in987.5 mb 0.00 in0.0 mm 0.00 in/hr0.0 mm/hr 0.00 in0.0 mm
01:01 PM 43.3°F6.3°C 32.4°F0.2°C 65% 8.3 mph SW13.4 kmh SW 11.4 mph18.3 kmh 29.15 in987.1 mb 0.00 in0.0 mm 0.00 in/hr0.0 mm/hr 0.00 in0.0 mm
12:56 PM 43.9°F6.6°C 32.5°F0.3°C 64% 13.0 mph W20.9 kmh W 16.8 mph27.0 kmh 29.16 in987.5 mb 0.00 in0.0 mm 0.00 in/hr0.0 mm/hr 0.00 in0.0 mm
12:47 PM 44.2°F6.8°C 33.2°F0.7°C 65% 9.2 mph 14.8 kmh 15.2 mph24.5 kmh 29.16 in987.5 mb 0.00 in0.0 mm 0.00 in/hr0.0 mm/hr 0.00 in0.0 mm
12:42 PM 44.1°F6.7°C 33.4°F0.8°C 66% 10.7 mph WSW17.2 kmh WSW 18.3 mph29.5 kmh 29.17 in987.8 mb 0.00 in0.0 mm 0.00 in/hr0.0 mm/hr 0.00 in0.0 mm
12:37 PM 43.9°F6.6°C 33.3°F0.7°C 66% 12.1 mph SW19.5 kmh SW 18.3 mph29.5 kmh 29.17 in987.8 mb 0.00 in0.0 mm 0.00 in/hr0.0 mm/hr 0.00 in0.0 mm
12:31 PM 43.7°F6.5°C 33.8°F1.0°C 68% 11.4 mph W18.3 kmh W 17.4 mph28.0 kmh 29.17 in987.8 mb 0.00 in0.0 mm 0.00 in/hr0.0 mm/hr 0.00 in0.0 mm
12:26 PM 43.0°F6.1°C 33.5°F0.8°C 69% 8.3 mph 13.4 kmh 13.0 mph20.9 kmh 29.18 in988.1 mb 0.00 in0.0 mm 0.00 in/hr0.0 mm/hr 0.00 in0.0 mm
12:20 PM 42.4°F5.8°C 33.4°F0.8°C 70% 6.0 mph SSE9.7 kmh SSE 11.4 mph18.3 kmh 29.19 in988.5 mb 0.00 in0.0 mm 0.00 in/hr0.0 mm/hr 0.00 in0.0 mm
12:14 PM 42.3°F5.7°C 33.2°F0.7°C 70% 16.8 mph S27.0 kmh S 22.8 mph36.7 kmh 29.19 in988.5 mb 0.00 in0.0 mm 0.00 in/hr0.0 mm/hr 0.00 in0.0 mm
12:08 PM 42.1°F5.6°C 33.7°F0.9°C 72% 13.6 mph NW21.9 kmh NW 18.3 mph29.5 kmh 29.20 in988.8 mb 0.00 in0.0 mm 0.00 in/hr0.0 mm/hr 0.00 in0.0 mm
11:58 AM 41.5°F5.3°C 33.5°F0.8°C 73% 13.6 mph NW21.9 kmh NW 18.3 mph29.5 kmh 29.20 in988.8 mb 0.00 in0.0 mm 0.00 in/hr0.0 mm/hr 0.00 in0.0 mm
11:51 AM 41.5°F5.3°C 33.5°F0.8°C 73% 6.9 mph SW11.1 kmh SW 13.0 mph20.9 kmh 29.21 in989.2 mb 0.00 in0.0 mm 0.00 in/hr0.0 mm/hr 0.00 in0.0 mm
11:41 AM 41.5°F5.3°C 33.5°F0.8°C 73% 5.4 mph S8.7 kmh S 10.7 mph17.2 kmh 29.22 in989.5 mb 0.00 in0.0 mm 0.00 in/hr0.0 mm/hr 0.00 in0.0 mm
11:32 AM 41.4°F5.2°C 33.7°F0.9°C 74% 8.3 mph SW13.4 kmh SW 13.6 mph21.9 kmh 29.22 in989.5 mb 0.00 in0.0 mm 0.00 in/hr0.0 mm/hr 0.00 in0.0 mm
11:25 AM 41.0°F5.0°C 33.7°F0.9°C 75% 8.3 mph SW13.4 kmh SW 12.1 mph19.5 kmh 29.24 in990.2 mb 0.00 in0.0 mm 0.00 in/hr0.0 mm/hr 0.00 in0.0 mm
11:20 AM 40.8°F4.9°C 33.9°F1.1°C 76% 6.9 mph NW11.1 kmh NW 10.7 mph17.2 kmh 29.24 in990.2 mb 0.00 in0.0 mm 0.00 in/hr0.0 mm/hr 0.00 in0.0 mm
11:14 AM 40.5°F4.7°C 33.5°F0.8°C 76% 9.2 mph S14.8 kmh S 11.4 mph18.3 kmh 29.24 in990.2 mb 0.00 in0.0 mm 0.00 in/hr0.0 mm/hr 0.00 in0.0 mm
11:09 AM 40.1°F4.5°C 33.2°F0.7°C 76% 6.0 mph W9.7 kmh W 9.8 mph15.8 kmh 29.25 in990.5 mb 0.00 in0.0 mm 0.00 in/hr0.0 mm/hr 0.00 in0.0 mm
11:01 AM 39.4°F4.1°C 32.8°F0.4°C 77% 9.2 mph S14.8 kmh S 13.6 mph21.9 kmh 29.25 in990.5 mb 0.00 in0.0 mm 0.00 in/hr0.0 mm/hr 0.00 in0.0 mm
10:56 AM 39.2°F4.0°C 32.6°F0.3°C 77% 9.2 mph NW14.8 kmh NW 13.0 mph20.9 kmh 29.25 in990.5 mb 0.00 in0.0 mm 0.00 in/hr0.0 mm/hr 0.00 in0.0 mm
10:48 AM 39.0°F3.9°C 32.8°F0.4°C 78% 7.6 mph SW12.2 kmh SW 12.1 mph19.5 kmh 29.26 in990.9 mb 0.00 in0.0 mm 0.00 in/hr0.0 mm/hr 0.00 in0.0 mm
10:38 AM 38.8°F3.8°C 32.6°F0.3°C 78% 8.3 mph W13.4 kmh W 9.8 mph15.8 kmh 29.26 in990.9 mb 0.00 in0.0 mm 0.00 in/hr0.0 mm/hr 0.00 in0.0 mm
10:30 AM 38.5°F3.6°C 32.2°F0.1°C 78% 8.3 mph SW13.4 kmh SW 13.0 mph20.9 kmh 29.27 in991.2 mb 0.00 in0.0 mm 0.00 in/hr0.0 mm/hr 0.00 in0.0 mm
10:24 AM 38.3°F3.5°C 32.1°F0.1°C 78% 8.3 mph NW13.4 kmh NW 15.9 mph25.6 kmh 29.27 in991.2 mb 0.00 in0.0 mm 0.00 in/hr0.0 mm/hr 0.00 in0.0 mm
10:16 AM 37.9°F3.3°C 31.7°F-0.2°C 78% 10.7 mph S17.2 kmh S 15.2 mph24.5 kmh 29.27 in991.2 mb 0.00 in0.0 mm 0.00 in/hr0.0 mm/hr 0.00 in0.0 mm
10:11 AM 37.9°F3.3°C 31.7°F-0.2°C 78% 6.9 mph SW11.1 kmh SW 12.1 mph19.5 kmh 29.28 in991.5 mb 0.00 in0.0 mm 0.00 in/hr0.0 mm/hr 0.00 in0.0 mm
10:04 AM 38.1°F3.4°C 31.9°F-0.1°C 78% 6.0 mph SW9.7 kmh SW 9.8 mph15.8 kmh 29.28 in991.5 mb 0.00 in0.0 mm 0.00 in/hr0.0 mm/hr 0.00 in0.0 mm
09:59 AM 38.1°F3.4°C 31.9°F-0.1°C 78% 6.0 mph SW9.7 kmh SW 9.8 mph15.8 kmh 29.29 in991.9 mb 0.00 in0.0 mm 0.00 in/hr0.0 mm/hr 0.00 in0.0 mm
09:54 AM 38.1°F3.4°C 31.9°F-0.1°C 78% 11.4 mph NW18.3 kmh NW 19.0 mph30.6 kmh 29.28 in991.5 mb 0.00 in0.0 mm 0.00 in/hr0.0 mm/hr 0.00 in0.0 mm
09:49 AM 37.8°F3.2°C 31.8°F-0.1°C 79% 9.2 mph NNE14.8 kmh NNE 14.5 mph23.3 kmh 29.29 in991.9 mb 0.00 in0.0 mm 0.00 in/hr0.0 mm/hr 0.00 in0.0 mm
09:44 AM 37.6°F3.1°C 31.7°F-0.2°C 79% 6.9 mph W11.1 kmh W 9.8 mph15.8 kmh 29.29 in991.9 mb 0.00 in0.0 mm 0.00 in/hr0.0 mm/hr 0.00 in0.0 mm
09:39 AM 37.4°F3.0°C 31.5°F-0.3°C 79% 9.8 mph SW15.8 kmh SW 15.2 mph24.5 kmh 29.29 in991.9 mb 0.00 in0.0 mm 0.00 in/hr0.0 mm/hr 0.00 in0.0 mm
09:34 AM 37.4°F3.0°C 31.5°F-0.3°C 79% 7.6 mph SSW12.2 kmh SSW 13.0 mph20.9 kmh 29.29 in991.9 mb 0.00 in0.0 mm 0.00 in/hr0.0 mm/hr 0.00 in0.0 mm
09:29 AM 37.0°F2.8°C 29.9°F-1.2°C 75% 8.3 mph W13.4 kmh W 15.2 mph24.5 kmh 29.29 in991.9 mb 0.00 in0.0 mm 0.00 in/hr0.0 mm/hr 0.00 in0.0 mm
09:24 AM 37.0°F2.8°C 29.9°F-1.2°C 75% 6.0 mph NW9.7 kmh NW 11.4 mph18.3 kmh 29.30 in992.2 mb 0.00 in0.0 mm 0.00 in/hr0.0 mm/hr 0.00 in0.0 mm
09:19 AM 37.0°F2.8°C 29.9°F-1.2°C 75% 11.4 mph SW18.3 kmh SW 16.8 mph27.0 kmh 29.30 in992.2 mb 0.00 in0.0 mm 0.00 in/hr0.0 mm/hr 0.00 in0.0 mm
09:14 AM 37.0°F2.8°C 29.9°F-1.2°C 75% 8.3 mph W13.4 kmh W 13.0 mph20.9 kmh 29.30 in992.2 mb 0.00 in0.0 mm 0.00 in/hr0.0 mm/hr 0.00 in0.0 mm
09:09 AM 36.9°F2.7°C 29.7°F-1.3°C 75% 9.8 mph NW15.8 kmh NW 15.9 mph25.6 kmh 29.30 in992.2 mb 0.00 in0.0 mm 0.00 in/hr0.0 mm/hr 0.00 in0.0 mm
09:04 AM 36.9°F2.7°C 29.7°F-1.3°C 75% 9.2 mph NW14.8 kmh NW 13.6 mph21.9 kmh 29.31 in992.6 mb 0.00 in0.0 mm 0.00 in/hr0.0 mm/hr 0.00 in0.0 mm
08:59 AM 36.9°F2.7°C 29.7°F-1.3°C 75% 6.9 mph 11.1 kmh 15.9 mph25.6 kmh 29.31 in992.6 mb 0.00 in0.0 mm 0.00 in/hr0.0 mm/hr 0.00 in0.0 mm
08:54 AM 36.7°F2.6°C 29.5°F-1.4°C 75% 13.0 mph W20.9 kmh W 15.9 mph25.6 kmh 29.32 in992.9 mb 0.00 in0.0 mm 0.00 in/hr0.0 mm/hr 0.00 in0.0 mm
08:49 AM 36.5°F2.5°C 29.3°F-1.5°C 75% 9.2 mph W14.8 kmh W 17.4 mph28.0 kmh 29.32 in992.9 mb 0.00 in0.0 mm 0.00 in/hr0.0 mm/hr 0.00 in0.0 mm
08:44 AM 36.5°F2.5°C 29.3°F-1.5°C 75% 7.6 mph SW12.2 kmh SW 13.6 mph21.9 kmh 29.32 in992.9 mb 0.00 in0.0 mm 0.00 in/hr0.0 mm/hr 0.00 in0.0 mm
08:39 AM 36.5°F2.5°C 29.3°F-1.5°C 75% 12.1 mph WNW19.5 kmh WNW 19.0 mph30.6 kmh 29.32 in992.9 mb 0.00 in0.0 mm 0.00 in/hr0.0 mm/hr 0.00 in0.0 mm
08:34 AM 36.5°F2.5°C 29.3°F-1.5°C 75% 7.6 mph NW12.2 kmh NW 13.0 mph20.9 kmh 29.32 in992.9 mb 0.00 in0.0 mm 0.00 in/hr0.0 mm/hr 0.00 in0.0 mm
08:29 AM 36.5°F2.5°C 29.7°F-1.3°C 76% 13.0 mph NW20.9 kmh NW 18.3 mph29.5 kmh 29.32 in992.9 mb 0.00 in0.0 mm 0.00 in/hr0.0 mm/hr 0.00 in0.0 mm
08:24 AM 36.5°F2.5°C 29.7°F-1.3°C 76% 9.2 mph NW14.8 kmh NW 16.8 mph27.0 kmh 29.33 in993.2 mb 0.00 in0.0 mm 0.00 in/hr0.0 mm/hr 0.00 in0.0 mm
08:19 AM 36.3°F2.4°C 29.8°F-1.2°C 77% 9.8 mph SW15.8 kmh SW 15.2 mph24.5 kmh 29.32 in992.9 mb 0.00 in0.0 mm 0.00 in/hr0.0 mm/hr 0.00 in0.0 mm
08:14 AM 36.0°F2.2°C 29.5°F-1.4°C 77% 14.5 mph S23.3 kmh S 20.6 mph33.2 kmh 29.33 in993.2 mb 0.00 in0.0 mm 0.00 in/hr0.0 mm/hr 0.00 in0.0 mm
08:09 AM 36.0°F2.2°C 29.1°F-1.6°C 76% 9.2 mph NE14.8 kmh NE 13.0 mph20.9 kmh 29.33 in993.2 mb 0.00 in0.0 mm 0.00 in/hr0.0 mm/hr 0.00 in0.0 mm
08:04 AM 36.0°F2.2°C 29.1°F-1.6°C 76% 7.6 mph SW12.2 kmh SW 10.7 mph17.2 kmh 29.34 in993.6 mb 0.00 in0.0 mm 0.00 in/hr0.0 mm/hr 0.00 in0.0 mm
07:59 AM 36.0°F2.2°C 29.1°F-1.6°C 76% 7.6 mph SW12.2 kmh SW 10.7 mph17.2 kmh 29.33 in993.2 mb 0.00 in0.0 mm 0.00 in/hr0.0 mm/hr 0.00 in0.0 mm
07:54 AM 36.1°F2.3°C 29.0°F-1.7°C 75% 13.6 mph NW21.9 kmh NW 18.3 mph29.5 kmh 29.34 in993.6 mb 0.00 in0.0 mm 0.00 in/hr0.0 mm/hr 0.00 in0.0 mm
07:49 AM 36.1°F2.3°C 29.0°F-1.7°C 75% 9.2 mph NW14.8 kmh NW 13.6 mph21.9 kmh 29.34 in993.6 mb 0.00 in0.0 mm 0.00 in/hr0.0 mm/hr 0.00 in0.0 mm
07:44 AM 36.0°F2.2°C 28.8°F-1.8°C 75% 12.1 mph SW19.5 kmh SW 15.9 mph25.6 kmh 29.34 in993.6 mb 0.00 in0.0 mm 0.00 in/hr0.0 mm/hr 0.00 in0.0 mm
07:39 AM 36.1°F2.3°C 29.0°F-1.7°C 75% 9.2 mph NNW14.8 kmh NNW 13.6 mph21.9 kmh 29.33 in993.2 mb 0.00 in0.0 mm 0.00 in/hr0.0 mm/hr 0.00 in0.0 mm
07:34 AM 36.1°F2.3°C 28.7°F-1.8°C 74% 8.3 mph S13.4 kmh S 14.5 mph23.3 kmh 29.33 in993.2 mb 0.00 in0.0 mm 0.00 in/hr0.0 mm/hr 0.00 in0.0 mm
07:29 AM 36.1°F2.3°C 28.7°F-1.8°C 74% 8.3 mph WNW13.4 kmh WNW 12.1 mph19.5 kmh 29.34 in993.6 mb 0.00 in0.0 mm 0.00 in/hr0.0 mm/hr 0.00 in0.0 mm
07:24 AM 36.1°F2.3°C 28.7°F-1.8°C 74% 9.2 mph SW14.8 kmh SW 14.5 mph23.3 kmh 29.34 in993.6 mb 0.00 in0.0 mm 0.00 in/hr0.0 mm/hr 0.00 in0.0 mm
07:19 AM 36.1°F2.3°C 28.7°F-1.8°C 74% 9.2 mph SW14.8 kmh SW 15.2 mph24.5 kmh 29.34 in993.6 mb 0.00 in0.0 mm 0.00 in/hr0.0 mm/hr 0.00 in0.0 mm
07:14 AM 36.0°F2.2°C 28.5°F-1.9°C 74% 14.5 mph SW23.3 kmh SW 19.0 mph30.6 kmh 29.35 in993.9 mb 0.00 in0.0 mm 0.00 in/hr0.0 mm/hr 0.00 in0.0 mm
07:09 AM 36.0°F2.2°C 28.5°F-1.9°C 74% 9.8 mph NNW15.8 kmh NNW 15.9 mph25.6 kmh 29.35 in993.9 mb 0.00 in0.0 mm 0.00 in/hr0.0 mm/hr 0.00 in0.0 mm
07:04 AM 36.0°F2.2°C 28.5°F-1.9°C 74% 13.0 mph NW20.9 kmh NW 20.6 mph33.2 kmh 29.35 in993.9 mb 0.00 in0.0 mm 0.00 in/hr0.0 mm/hr 0.00 in0.0 mm
06:59 AM 36.0°F2.2°C 28.5°F-1.9°C 74% 9.2 mph SW14.8 kmh SW 13.0 mph20.9 kmh 29.36 in994.2 mb 0.00 in0.0 mm 0.00 in/hr0.0 mm/hr 0.00 in0.0 mm
06:54 AM 36.0°F2.2°C 28.5°F-1.9°C 74% 13.6 mph 21.9 kmh 22.8 mph36.7 kmh 29.36 in994.2 mb 0.00 in0.0 mm 0.00 in/hr0.0 mm/hr 0.00 in0.0 mm
06:49 AM 36.0°F2.2°C 28.5°F-1.9°C 74% 7.6 mph S12.2 kmh S 17.4 mph28.0 kmh 29.36 in994.2 mb 0.00 in0.0 mm 0.00 in/hr0.0 mm/hr 0.00 in0.0 mm
06:44 AM 36.0°F2.2°C 28.5°F-1.9°C 74% 7.6 mph W12.2 kmh W 11.4 mph18.3 kmh 29.36 in994.2 mb 0.00 in0.0 mm 0.00 in/hr0.0 mm/hr 0.00 in0.0 mm
06:39 AM 36.1°F2.3°C 28.3°F-2.1°C 73% 9.2 mph SW14.8 kmh SW 15.2 mph24.5 kmh 29.36 in994.2 mb 0.00 in0.0 mm 0.00 in/hr0.0 mm/hr 0.00 in0.0 mm
06:34 AM 36.1°F2.3°C 28.7°F-1.8°C 74% 9.2 mph S14.8 kmh S 13.6 mph21.9 kmh 29.37 in994.6 mb 0.00 in0.0 mm 0.00 in/hr0.0 mm/hr 0.00 in0.0 mm
06:29 AM 36.1°F2.3°C 28.7°F-1.8°C 74% 13.6 mph S21.9 kmh S 18.3 mph29.5 kmh 29.37 in994.6 mb 0.00 in0.0 mm 0.00 in/hr0.0 mm/hr 0.00 in0.0 mm
06:24 AM 36.0°F2.2°C 28.5°F-1.9°C 74% 8.3 mph SW13.4 kmh SW 13.0 mph20.9 kmh 29.37 in994.6 mb 0.00 in0.0 mm 0.00 in/hr0.0 mm/hr 0.00 in0.0 mm
06:19 AM 35.8°F2.1°C 28.3°F-2.1°C 74% 11.4 mph S18.3 kmh S 15.9 mph25.6 kmh 29.37 in994.6 mb 0.00 in0.0 mm 0.00 in/hr0.0 mm/hr 0.00 in0.0 mm
06:14 AM 35.6°F2.0°C 28.1°F-2.2°C 74% 10.7 mph S17.2 kmh S 15.2 mph24.5 kmh 29.37 in994.6 mb 0.00 in0.0 mm 0.00 in/hr0.0 mm/hr 0.00 in0.0 mm
06:09 AM 35.4°F1.9°C 28.3°F-2.1°C 75% 9.2 mph NNW14.8 kmh NNW 13.6 mph21.9 kmh 29.37 in994.6 mb 0.00 in0.0 mm 0.00 in/hr0.0 mm/hr 0.00 in0.0 mm
06:04 AM 35.2°F1.8°C 28.1°F-2.2°C 75% 6.0 mph 9.7 kmh 10.7 mph17.2 kmh 29.38 in994.9 mb 0.00 in0.0 mm 0.00 in/hr0.0 mm/hr 0.00 in0.0 mm
05:59 AM 35.2°F1.8°C 28.1°F-2.2°C 75% 6.0 mph 9.7 kmh 10.7 mph17.2 kmh 29.38 in994.9 mb 0.00 in0.0 mm 0.00 in/hr0.0 mm/hr 0.00 in0.0 mm
05:54 AM 35.4°F1.9°C 28.3°F-2.1°C 75% 6.9 mph NNE11.1 kmh NNE 11.4 mph18.3 kmh 29.38 in994.9 mb 0.00 in0.0 mm 0.00 in/hr0.0 mm/hr 0.00 in0.0 mm
05:49 AM 35.4°F1.9°C 28.3°F-2.1°C 75% 6.0 mph SW9.7 kmh SW 9.2 mph14.8 kmh 29.38 in994.9 mb 0.00 in0.0 mm 0.00 in/hr0.0 mm/hr 0.00 in0.0 mm
05:44 AM 35.4°F1.9°C 28.0°F-2.2°C 74% 5.4 mph SE8.7 kmh SE 10.7 mph17.2 kmh 29.39 in995.3 mb 0.00 in0.0 mm 0.00 in/hr0.0 mm/hr 0.00 in0.0 mm
05:39 AM 35.2°F1.8°C 27.8°F-2.3°C 74% 3.8 mph S6.1 kmh S 6.9 mph11.1 kmh 29.39 in995.3 mb 0.00 in0.0 mm 0.00 in/hr0.0 mm/hr 0.00 in0.0 mm
05:34 AM 35.2°F1.8°C 27.8°F-2.3°C 74% 6.0 mph SW9.7 kmh SW 9.2 mph14.8 kmh 29.39 in995.3 mb 0.00 in0.0 mm 0.00 in/hr0.0 mm/hr 0.00 in0.0 mm
05:29 AM 35.2°F1.8°C 27.8°F-2.3°C 74% 8.3 mph SW13.4 kmh SW 11.4 mph18.3 kmh 29.40 in995.6 mb 0.00 in0.0 mm 0.00 in/hr0.0 mm/hr 0.00 in0.0 mm
05:24 AM 35.2°F1.8°C 27.8°F-2.3°C 74% 6.0 mph 9.7 kmh 9.8 mph15.8 kmh 29.40 in995.6 mb 0.00 in0.0 mm 0.00 in/hr0.0 mm/hr 0.00 in0.0 mm
05:19 AM 35.1°F1.7°C 27.6°F-2.4°C 74% 5.4 mph SW8.7 kmh SW 8.3 mph13.4 kmh 29.41 in995.9 mb 0.00 in0.0 mm 0.00 in/hr0.0 mm/hr 0.00 in0.0 mm
05:14 AM 35.1°F1.7°C 27.6°F-2.4°C 74% 7.6 mph NW12.2 kmh NW 12.1 mph19.5 kmh 29.41 in995.9 mb 0.00 in0.0 mm 0.00 in/hr0.0 mm/hr 0.00 in0.0 mm
05:09 AM 35.1°F1.7°C 27.3°F-2.6°C 73% 6.0 mph NW9.7 kmh NW 8.3 mph13.4 kmh 29.41 in995.9 mb 0.00 in0.0 mm 0.00 in/hr0.0 mm/hr 0.00 in0.0 mm
05:04 AM 34.9°F1.6°C 27.1°F-2.7°C 73% 4.5 mph SW7.2 kmh SW 7.6 mph12.2 kmh 29.41 in995.9 mb 0.00 in0.0 mm 0.00 in/hr0.0 mm/hr 0.00 in0.0 mm
04:59 AM 34.9°F1.6°C 27.1°F-2.7°C 73% 6.9 mph SW11.1 kmh SW 9.8 mph15.8 kmh 29.41 in995.9 mb 0.00 in0.0 mm 0.00 in/hr0.0 mm/hr 0.00 in0.0 mm
04:54 AM 34.9°F1.6°C 27.1°F-2.7°C 73% 9.8 mph S15.8 kmh S 12.1 mph19.5 kmh 29.42 in996.3 mb 0.00 in0.0 mm 0.00 in/hr0.0 mm/hr 0.00 in0.0 mm
04:49 AM 34.9°F1.6°C 27.1°F-2.7°C 73% 6.9 mph W11.1 kmh W 9.8 mph15.8 kmh 29.43 in996.6 mb 0.00 in0.0 mm 0.00 in/hr0.0 mm/hr 0.00 in0.0 mm
04:44 AM 34.7°F1.5°C 26.9°F-2.8°C 73% 4.5 mph NNE7.2 kmh NNE 10.7 mph17.2 kmh 29.43 in996.6 mb 0.00 in0.0 mm 0.00 in/hr0.0 mm/hr 0.00 in0.0 mm
04:39 AM 34.7°F1.5°C 26.9°F-2.8°C 73% 8.3 mph SW13.4 kmh SW 10.7 mph17.2 kmh 29.43 in996.6 mb 0.00 in0.0 mm 0.00 in/hr0.0 mm/hr 0.00 in0.0 mm
04:34 AM 34.7°F1.5°C 26.9°F-2.8°C 73% 4.5 mph S7.2 kmh S 9.2 mph14.8 kmh 29.44 in997.0 mb 0.00 in0.0 mm 0.00 in/hr0.0 mm/hr 0.00 in0.0 mm
04:29 AM 34.7°F1.5°C 26.9°F-2.8°C 73% 5.4 mph S8.7 kmh S 9.2 mph14.8 kmh 29.44 in997.0 mb 0.00 in0.0 mm 0.00 in/hr0.0 mm/hr 0.00 in0.0 mm
04:24 AM 34.7°F1.5°C 26.9°F-2.8°C 73% 7.6 mph SW12.2 kmh SW 12.1 mph19.5 kmh 29.44 in997.0 mb 0.00 in0.0 mm 0.00 in/hr0.0 mm/hr 0.00 in0.0 mm
04:19 AM 34.9°F1.6°C 27.1°F-2.7°C 73% 4.5 mph NW7.2 kmh NW 9.2 mph14.8 kmh 29.44 in997.0 mb 0.00 in0.0 mm 0.00 in/hr0.0 mm/hr 0.00 in0.0 mm
04:14 AM 34.9°F1.6°C 27.1°F-2.7°C 73% 6.0 mph W9.7 kmh W 8.3 mph13.4 kmh 29.44 in997.0 mb 0.00 in0.0 mm 0.00 in/hr0.0 mm/hr 0.00 in0.0 mm
04:09 AM 34.9°F1.6°C 27.1°F-2.7°C 73% 6.9 mph SW11.1 kmh SW 10.7 mph17.2 kmh 29.45 in997.3 mb 0.00 in0.0 mm 0.00 in/hr0.0 mm/hr 0.00 in0.0 mm
04:04 AM 35.1°F1.7°C 27.3°F-2.6°C 73% 6.9 mph S11.1 kmh S 9.8 mph15.8 kmh 29.45 in997.3 mb 0.00 in0.0 mm 0.00 in/hr0.0 mm/hr 0.00 in0.0 mm
03:59 AM 35.1°F1.7°C 27.3°F-2.6°C 73% 6.9 mph S11.1 kmh S 9.8 mph15.8 kmh 29.45 in997.3 mb 0.00 in0.0 mm 0.00 in/hr0.0 mm/hr 0.00 in0.0 mm
03:54 AM 35.1°F1.7°C 27.0°F-2.8°C 72% 10.7 mph S17.2 kmh S 14.5 mph23.3 kmh 29.45 in997.3 mb 0.00 in0.0 mm 0.00 in/hr0.0 mm/hr 0.00 in0.0 mm
03:49 AM 35.2°F1.8°C 27.1°F-2.7°C 72% 4.5 mph SW7.2 kmh SW 8.3 mph13.4 kmh 29.45 in997.3 mb 0.00 in0.0 mm 0.00 in/hr0.0 mm/hr 0.00 in0.0 mm
03:44 AM 35.2°F1.8°C 27.1°F-2.7°C 72% 9.2 mph WNW14.8 kmh WNW 15.2 mph24.5 kmh 29.45 in997.3 mb 0.00 in0.0 mm 0.00 in/hr0.0 mm/hr 0.00 in0.0 mm
03:39 AM 35.2°F1.8°C 27.1°F-2.7°C 72% 6.0 mph S9.7 kmh S 11.4 mph18.3 kmh 29.46 in997.6 mb 0.00 in0.0 mm 0.00 in/hr0.0 mm/hr 0.00 in0.0 mm
03:34 AM 35.4°F1.9°C 27.6°F-2.4°C 73% 10.7 mph NW17.2 kmh NW 16.8 mph27.0 kmh 29.46 in997.6 mb 0.00 in0.0 mm 0.00 in/hr0.0 mm/hr 0.00 in0.0 mm
03:29 AM 35.4°F1.9°C 27.6°F-2.4°C 73% 6.0 mph W9.7 kmh W 10.7 mph17.2 kmh 29.46 in997.6 mb 0.00 in0.0 mm 0.00 in/hr0.0 mm/hr 0.00 in0.0 mm
03:24 AM 35.4°F1.9°C 27.6°F-2.4°C 73% 9.8 mph NW15.8 kmh NW 15.9 mph25.6 kmh 29.46 in997.6 mb 0.00 in0.0 mm 0.00 in/hr0.0 mm/hr 0.00 in0.0 mm
03:19 AM 35.6°F2.0°C 27.5°F-2.5°C 72% 8.3 mph NW13.4 kmh NW 13.6 mph21.9 kmh 29.47 in998.0 mb 0.00 in0.0 mm 0.00 in/hr0.0 mm/hr 0.00 in0.0 mm
03:14 AM 35.6°F2.0°C 27.5°F-2.5°C 72% 9.2 mph 14.8 kmh 15.9 mph25.6 kmh 29.47 in998.0 mb 0.00 in0.0 mm 0.00 in/hr0.0 mm/hr 0.00 in0.0 mm
03:09 AM 35.6°F2.0°C 27.5°F-2.5°C 72% 9.8 mph SW15.8 kmh SW 13.6 mph21.9 kmh 29.47 in998.0 mb 0.00 in0.0 mm 0.00 in/hr0.0 mm/hr 0.00 in0.0 mm
03:04 AM 35.8°F2.1°C 27.7°F-2.4°C 72% 7.6 mph 12.2 kmh 10.7 mph17.2 kmh 29.47 in998.0 mb 0.00 in0.0 mm 0.00 in/hr0.0 mm/hr 0.00 in0.0 mm
02:59 AM 36.0°F2.2°C 27.8°F-2.3°C 72% 10.7 mph NW17.2 kmh NW 15.2 mph24.5 kmh 29.47 in998.0 mb 0.00 in0.0 mm 0.00 in/hr0.0 mm/hr 0.00 in0.0 mm
02:54 AM 36.1°F2.3°C 28.0°F-2.2°C 72% 9.8 mph S15.8 kmh S 13.0 mph20.9 kmh 29.47 in998.0 mb 0.00 in0.0 mm 0.00 in/hr0.0 mm/hr 0.00 in0.0 mm
02:49 AM 36.1°F2.3°C 28.0°F-2.2°C 72% 8.3 mph SW13.4 kmh SW 11.4 mph18.3 kmh 29.47 in998.0 mb 0.00 in0.0 mm 0.00 in/hr0.0 mm/hr 0.00 in0.0 mm
02:44 AM 36.1°F2.3°C 28.0°F-2.2°C 72% 6.9 mph NW11.1 kmh NW 9.8 mph15.8 kmh 29.47 in998.0 mb 0.00 in0.0 mm 0.00 in/hr0.0 mm/hr 0.00 in0.0 mm
02:39 AM 36.0°F2.2°C 27.8°F-2.3°C 72% 10.7 mph NW17.2 kmh NW 18.3 mph29.5 kmh 29.48 in998.3 mb 0.00 in0.0 mm 0.00 in/hr0.0 mm/hr 0.00 in0.0 mm
02:34 AM 36.0°F2.2°C 28.2°F-2.1°C 73% 12.1 mph W19.5 kmh W 19.7 mph31.7 kmh 29.48 in998.3 mb 0.00 in0.0 mm 0.00 in/hr0.0 mm/hr 0.00 in0.0 mm
02:29 AM 36.0°F2.2°C 28.2°F-2.1°C 73% 11.4 mph S18.3 kmh S 19.7 mph31.7 kmh 29.48 in998.3 mb 0.00 in0.0 mm 0.00 in/hr0.0 mm/hr 0.00 in0.0 mm
02:24 AM 35.8°F2.1°C 28.3°F-2.1°C 74% 9.2 mph W14.8 kmh W 11.4 mph18.3 kmh 29.48 in998.3 mb 0.00 in0.0 mm 0.00 in/hr0.0 mm/hr 0.00 in0.0 mm
02:19 AM 35.8°F2.1°C 28.3°F-2.1°C 74% 9.2 mph SW14.8 kmh SW 14.5 mph23.3 kmh 29.48 in998.3 mb 0.00 in0.0 mm 0.00 in/hr0.0 mm/hr 0.00 in0.0 mm
02:14 AM 35.8°F2.1°C 28.3°F-2.1°C 74% 10.7 mph NW17.2 kmh NW 13.6 mph21.9 kmh 29.48 in998.3 mb 0.00 in0.0 mm 0.00 in/hr0.0 mm/hr 0.00 in0.0 mm
02:09 AM 35.6°F2.0°C 28.5°F-1.9°C 75% 12.1 mph NW19.5 kmh NW 18.3 mph29.5 kmh 29.49 in998.6 mb 0.00 in0.0 mm 0.00 in/hr0.0 mm/hr 0.00 in0.0 mm
02:04 AM 35.4°F1.9°C 28.6°F-1.9°C 76% 6.9 mph SW11.1 kmh SW 10.7 mph17.2 kmh 29.48 in998.3 mb 0.00 in0.0 mm 0.00 in/hr0.0 mm/hr 0.00 in0.0 mm
01:59 AM 35.4°F1.9°C 28.6°F-1.9°C 76% 6.9 mph SW11.1 kmh SW 10.7 mph17.2 kmh 29.49 in998.6 mb 0.00 in0.0 mm 0.00 in/hr0.0 mm/hr 0.00 in0.0 mm
01:54 AM 35.4°F1.9°C 28.9°F-1.7°C 77% 8.3 mph SW13.4 kmh SW 13.6 mph21.9 kmh 29.49 in998.6 mb 0.00 in0.0 mm 0.00 in/hr0.0 mm/hr 0.00 in0.0 mm
01:49 AM 35.4°F1.9°C 28.9°F-1.7°C 77% 7.6 mph SSW12.2 kmh SSW 10.7 mph17.2 kmh 29.49 in998.6 mb 0.00 in0.0 mm 0.00 in/hr0.0 mm/hr 0.00 in0.0 mm
01:44 AM 35.4°F1.9°C 29.3°F-1.5°C 78% 6.9 mph SW11.1 kmh SW 8.3 mph13.4 kmh 29.49 in998.6 mb 0.00 in0.0 mm 0.00 in/hr0.0 mm/hr 0.00 in0.0 mm
01:39 AM 35.4°F1.9°C 29.6°F-1.3°C 79% 8.3 mph W13.4 kmh W 12.1 mph19.5 kmh 29.49 in998.6 mb 0.00 in0.0 mm 0.00 in/hr0.0 mm/hr 0.00 in0.0 mm
01:34 AM 35.2°F1.8°C 29.7°F-1.3°C 80% 6.9 mph NW11.1 kmh NW 10.7 mph17.2 kmh 29.49 in998.6 mb 0.00 in0.0 mm 0.00 in/hr0.0 mm/hr 0.00 in0.0 mm
01:29 AM 35.2°F1.8°C 30.0°F-1.1°C 81% 6.0 mph W9.7 kmh W 11.4 mph18.3 kmh 29.50 in999.0 mb 0.00 in0.0 mm 0.00 in/hr0.0 mm/hr 0.00 in0.0 mm
01:24 AM 35.1°F1.7°C 29.8°F-1.2°C 81% 7.6 mph NW12.2 kmh NW 9.2 mph14.8 kmh 29.49 in998.6 mb 0.00 in0.0 mm 0.00 in/hr0.0 mm/hr 0.00 in0.0 mm
01:19 AM 35.1°F1.7°C 30.1°F-1.1°C 82% 9.2 mph NW14.8 kmh NW 17.4 mph28.0 kmh 29.50 in999.0 mb 0.00 in0.0 mm 0.00 in/hr0.0 mm/hr 0.00 in0.0 mm
01:14 AM 34.9°F1.6°C 30.0°F-1.1°C 82% 6.9 mph SW11.1 kmh SW 9.8 mph15.8 kmh 29.50 in999.0 mb 0.00 in0.0 mm 0.00 in/hr0.0 mm/hr 0.00 in0.0 mm
01:09 AM 34.9°F1.6°C 30.0°F-1.1°C 82% 6.0 mph NW9.7 kmh NW 9.2 mph14.8 kmh 29.50 in999.0 mb 0.00 in0.0 mm 0.00 in/hr0.0 mm/hr 0.00 in0.0 mm
01:04 AM 35.1°F1.7°C 30.1°F-1.1°C 82% 8.3 mph SW13.4 kmh SW 13.0 mph20.9 kmh 29.50 in999.0 mb 0.00 in0.0 mm 0.00 in/hr0.0 mm/hr 0.00 in0.0 mm
12:59 AM 35.1°F1.7°C 29.8°F-1.2°C 81% 4.5 mph W7.2 kmh W 9.8 mph15.8 kmh 29.50 in999.0 mb 0.00 in0.0 mm 0.00 in/hr0.0 mm/hr 0.00 in0.0 mm
12:54 AM 35.1°F1.7°C 29.8°F-1.2°C 81% 5.4 mph W8.7 kmh W 8.3 mph13.4 kmh 29.51 in999.3 mb 0.00 in0.0 mm 0.00 in/hr0.0 mm/hr 0.00 in0.0 mm
12:49 AM 35.1°F1.7°C 29.5°F-1.4°C 80% 5.4 mph NW8.7 kmh NW 8.3 mph13.4 kmh 29.51 in999.3 mb 0.00 in0.0 mm 0.00 in/hr0.0 mm/hr 0.00 in0.0 mm
12:44 AM 35.2°F1.8°C 29.7°F-1.3°C 80% 4.5 mph NW7.2 kmh NW 6.9 mph11.1 kmh 29.51 in999.3 mb 0.00 in0.0 mm 0.00 in/hr0.0 mm/hr 0.00 in0.0 mm
12:39 AM 35.6°F2.0°C 29.4°F-1.4°C 78% 6.0 mph SW9.7 kmh SW 10.7 mph17.2 kmh 29.51 in999.3 mb 0.00 in0.0 mm 0.00 in/hr0.0 mm/hr 0.00 in0.0 mm
12:34 AM 36.0°F2.2°C 29.5°F-1.4°C 77% 7.6 mph W12.2 kmh W 10.7 mph17.2 kmh 29.52 in999.7 mb 0.00 in0.0 mm 0.00 in/hr0.0 mm/hr 0.00 in0.0 mm
12:29 AM 36.5°F2.5°C 29.7°F-1.3°C 76% 9.8 mph NW15.8 kmh NW 14.5 mph23.3 kmh 29.52 in999.7 mb 0.00 in0.0 mm 0.00 in/hr0.0 mm/hr 0.00 in0.0 mm
12:24 AM 36.9°F2.7°C 29.7°F-1.3°C 75% 14.5 mph WNW23.3 kmh WNW 17.4 mph28.0 kmh 29.52 in999.7 mb 0.00 in0.0 mm 0.00 in/hr0.0 mm/hr 0.00 in0.0 mm
12:19 AM 37.4°F3.0°C 31.5°F-0.3°C 79% 13.0 mph NW20.9 kmh NW 18.3 mph29.5 kmh 29.52 in999.7 mb 0.00 in0.0 mm 0.00 in/hr0.0 mm/hr 0.00 in0.0 mm
12:14 AM 37.4°F3.0°C 31.5°F-0.3°C 79% 6.0 mph SW9.7 kmh SW 9.8 mph15.8 kmh 29.52 in999.7 mb 0.00 in0.0 mm 0.00 in/hr0.0 mm/hr 0.00 in0.0 mm
12:09 AM 37.2°F2.9°C 30.0°F-1.1°C 75% 5.4 mph NW8.7 kmh NW 8.3 mph13.4 kmh 29.51 in999.3 mb 0.00 in0.0 mm 0.00 in/hr0.0 mm/hr 0.00 in0.0 mm
12:04 AM 37.2°F2.9°C 30.0°F-1.1°C 75% 6.0 mph SW9.7 kmh SW 9.8 mph15.8 kmh 29.51 in999.3 mb 0.00 in0.0 mm 0.00 in/hr0.0 mm/hr 0.00 in0.0 mm